createdAt,value
2018-08-09T00:01:02.425Z,8.03
2018-08-09T00:03:31.177Z,7.53
2018-08-09T00:05:59.265Z,8.30
2018-08-09T00:08:27.602Z,8.47
2018-08-09T00:10:55.730Z,9.47
2018-08-09T00:13:23.869Z,7.73
2018-08-09T00:15:51.991Z,7.27
2018-08-09T00:18:20.162Z,8.10
2018-08-09T00:20:48.317Z,8.00
2018-08-09T00:23:16.565Z,7.50
2018-08-09T00:25:44.665Z,8.60
2018-08-09T00:28:12.793Z,8.70
2018-08-09T00:30:40.926Z,8.60
2018-08-09T00:33:09.100Z,8.67
2018-08-09T00:35:37.248Z,9.30
2018-08-09T00:38:05.373Z,8.70
2018-08-09T00:40:33.497Z,8.33
2018-08-09T00:43:01.678Z,8.70
2018-08-09T00:45:29.796Z,8.77
2018-08-09T00:47:57.972Z,8.17
2018-08-09T00:50:26.088Z,8.80
2018-08-09T00:52:54.235Z,7.30
2018-08-09T00:55:22.345Z,9.37
2018-08-09T00:57:50.808Z,9.10
2018-08-09T01:00:19.137Z,8.40
2018-08-09T01:02:47.264Z,9.47
2018-08-09T01:05:15.371Z,8.80
2018-08-09T01:07:43.487Z,8.63
2018-08-09T01:10:11.650Z,7.50
2018-08-09T01:12:39.800Z,8.13
2018-08-09T01:15:07.962Z,8.30
2018-08-09T01:17:36.114Z,7.90
2018-08-09T01:20:05.053Z,8.67
2018-08-09T01:22:33.269Z,9.20
2018-08-09T01:25:01.393Z,9.33
2018-08-09T01:27:29.543Z,10.07
2018-08-09T01:29:57.677Z,8.20
2018-08-09T01:32:25.785Z,9.33
2018-08-09T01:34:53.922Z,9.40
2018-08-09T01:37:22.421Z,9.17
2018-08-09T01:39:50.541Z,9.00
2018-08-09T01:42:30.030Z,9.13
2018-08-09T01:44:58.157Z,8.90
2018-08-09T01:47:26.295Z,9.03
2018-08-09T01:49:54.413Z,10.67
2018-08-09T01:52:22.560Z,9.40
2018-08-09T01:54:50.702Z,9.80
2018-08-09T01:57:18.831Z,9.70
2018-08-09T01:59:47.658Z,10.00
2018-08-09T02:02:15.833Z,10.20
2018-08-09T02:04:43.987Z,10.90
2018-08-09T02:07:12.030Z,10.30
2018-08-09T02:09:40.285Z,10.87
2018-08-09T02:12:08.397Z,10.87
2018-08-09T02:14:36.528Z,10.43
2018-08-09T02:17:04.684Z,10.83
2018-08-09T02:19:32.812Z,10.00
2018-08-09T02:22:00.957Z,10.40
2018-08-09T02:24:29.090Z,10.50
2018-08-09T02:26:57.239Z,10.77
2018-08-09T02:29:25.370Z,11.43
2018-08-09T02:31:53.485Z,10.97
2018-08-09T02:34:21.785Z,11.30
2018-08-09T02:36:49.894Z,12.20
2018-08-09T02:39:18.038Z,11.93
2018-08-09T02:41:46.158Z,11.80
2018-08-09T02:44:14.283Z,11.63
2018-08-09T02:46:42.435Z,11.70
2018-08-09T02:49:11.130Z,12.13
2018-08-09T02:51:39.261Z,11.27
2018-08-09T02:54:07.427Z,11.53
2018-08-09T02:56:35.494Z,12.07
2018-08-09T02:59:03.638Z,13.13
2018-08-09T03:01:31.758Z,10.37
2018-08-09T03:03:59.881Z,11.50
2018-08-09T03:06:29.022Z,12.53
2018-08-09T03:08:58.160Z,11.67
2018-08-09T03:11:26.290Z,10.70
2018-08-09T03:13:54.397Z,10.57
2018-08-09T03:16:22.567Z,11.03
2018-08-09T03:18:51.759Z,10.90
2018-08-09T03:21:19.893Z,11.10
2018-08-09T03:23:48.093Z,11.10
2018-08-09T03:26:16.224Z,10.90
2018-08-09T03:28:44.374Z,11.43
2018-08-09T03:31:12.494Z,12.80
2018-08-09T03:33:40.622Z,12.63
2018-08-09T03:36:08.790Z,12.90
2018-08-09T03:38:36.930Z,11.50
2018-08-09T03:41:05.104Z,11.87
2018-08-09T03:43:33.233Z,14.63
2018-08-09T03:46:01.365Z,11.17
2018-08-09T03:48:29.499Z,11.63
2018-08-09T03:50:57.650Z,12.33
2018-08-09T03:53:25.785Z,12.57
2018-08-09T03:55:53.955Z,13.23
2018-08-09T03:58:22.177Z,12.90
2018-08-09T04:00:50.310Z,12.17
2018-08-09T04:03:18.399Z,12.33
2018-08-09T04:05:46.545Z,12.30
2018-08-09T04:08:14.658Z,12.80
2018-08-09T04:10:43.034Z,14.33
2018-08-09T04:13:11.175Z,13.77
2018-08-09T04:15:39.294Z,12.30
2018-08-09T04:18:07.567Z,13.50
2018-08-09T04:20:35.673Z,12.70
2018-08-09T04:23:04.007Z,12.83
2018-08-09T04:25:32.113Z,13.30
2018-08-09T04:28:00.214Z,12.40
2018-08-09T04:30:28.375Z,13.30
2018-08-09T04:32:56.469Z,11.20
2018-08-09T04:35:24.570Z,12.70
2018-08-09T04:37:52.708Z,11.10
2018-08-09T04:40:20.786Z,13.53
2018-08-09T04:42:48.900Z,12.77
2018-08-09T04:45:16.989Z,12.97
2018-08-09T04:47:45.110Z,11.13
2018-08-09T04:50:13.267Z,10.93
2018-08-09T04:52:41.383Z,11.13
2018-08-09T04:55:09.534Z,11.77
2018-08-09T04:57:37.662Z,10.90
2018-08-09T05:00:05.810Z,11.53
2018-08-09T05:02:33.936Z,11.40
2018-08-09T05:05:02.065Z,11.60
2018-08-09T05:07:30.345Z,11.37
2018-08-09T05:10:02.790Z,11.17
2018-08-09T05:12:30.912Z,11.70
2018-08-09T05:14:59.053Z,12.30
2018-08-09T05:17:27.170Z,12.10
2018-08-09T05:19:55.250Z,11.67
2018-08-09T05:22:23.383Z,12.17
2018-08-09T05:24:51.497Z,12.40
2018-08-09T05:27:19.622Z,14.37
2018-08-09T05:29:47.759Z,13.10
2018-08-09T05:32:15.867Z,14.67
2018-08-09T05:34:44.048Z,14.27
2018-08-09T05:37:12.178Z,14.03
2018-08-09T05:39:40.307Z,13.03
2018-08-09T05:42:08.454Z,11.97
2018-08-09T05:44:36.565Z,12.30
2018-08-09T05:47:04.687Z,14.80
2018-08-09T05:49:32.783Z,13.07
2018-08-09T05:52:00.906Z,12.10
2018-08-09T05:54:29.037Z,12.20
2018-08-09T05:56:57.147Z,12.93
2018-08-09T05:59:25.237Z,12.63
2018-08-09T06:01:53.359Z,13.27
2018-08-09T06:04:21.481Z,14.03
2018-08-09T06:06:49.588Z,13.60
2018-08-09T06:09:17.700Z,12.87
2018-08-09T06:11:45.801Z,13.90
2018-08-09T06:14:13.918Z,14.07
2018-08-09T06:16:42.042Z,13.20
2018-08-09T06:19:10.214Z,12.60
2018-08-09T06:21:38.356Z,13.93
2018-08-09T06:24:06.530Z,12.90
2018-08-09T06:26:34.662Z,12.87
2018-08-09T06:29:02.751Z,13.60
2018-08-09T06:31:30.867Z,13.00
2018-08-09T06:33:59.061Z,14.00
2018-08-09T06:36:27.289Z,14.00
2018-08-09T06:38:55.381Z,14.43
2018-08-09T06:41:23.482Z,13.70
2018-08-09T06:43:51.602Z,12.20
2018-08-09T06:46:19.697Z,13.13
2018-08-09T06:48:47.818Z,12.47
2018-08-09T06:51:15.922Z,13.40
2018-08-09T06:53:44.090Z,14.57
2018-08-09T06:56:12.289Z,13.80
2018-08-09T06:58:40.285Z,16.90
2018-08-09T07:01:08.394Z,15.27
2018-08-09T07:03:36.510Z,17.40
2018-08-09T07:06:04.737Z,13.73
2018-08-09T07:08:32.868Z,15.67
2018-08-09T07:11:00.973Z,16.27
2018-08-09T07:13:29.098Z,14.60
2018-08-09T07:15:57.185Z,15.53
2018-08-09T07:18:25.321Z,16.80
2018-08-09T07:20:53.611Z,14.97
2018-08-09T07:23:21.718Z,14.73
2018-08-09T07:25:49.817Z,15.20
2018-08-09T07:28:17.934Z,14.03
2018-08-09T07:30:46.853Z,15.77
2018-08-09T07:33:14.972Z,13.77
2018-08-09T07:35:43.061Z,15.60
2018-08-09T07:38:11.169Z,14.90
2018-08-09T07:40:39.288Z,13.10
2018-08-09T07:43:07.390Z,11.77
2018-08-09T07:45:35.509Z,11.53
2018-08-09T07:48:03.649Z,13.63
2018-08-09T07:50:31.750Z,14.23
2018-08-09T07:53:01.119Z,14.83
2018-08-09T07:55:29.298Z,12.40
2018-08-09T07:57:57.416Z,14.40
2018-08-09T08:00:25.567Z,12.50
2018-08-09T08:02:53.677Z,11.80
2018-08-09T08:05:21.781Z,13.43
2018-08-09T08:07:49.899Z,11.80
2018-08-09T08:10:18.017Z,12.57
2018-08-09T08:12:46.131Z,12.33
2018-08-09T08:15:14.260Z,12.30
2018-08-09T08:17:42.354Z,12.10
2018-08-09T08:20:10.507Z,12.30
2018-08-09T08:22:38.669Z,11.43
2018-08-09T08:25:07.052Z,13.00
2018-08-09T08:27:35.184Z,12.53
2018-08-09T08:30:03.654Z,14.17
2018-08-09T08:32:31.762Z,12.40
2018-08-09T08:34:59.890Z,13.80
2018-08-09T08:37:28.015Z,12.57
2018-08-09T08:39:56.139Z,12.90
2018-08-09T08:42:24.229Z,10.70
2018-08-09T08:44:52.333Z,12.20
2018-08-09T08:47:20.479Z,13.23
2018-08-09T08:49:48.542Z,11.10
2018-08-09T08:52:16.626Z,11.87
2018-08-09T08:54:44.758Z,10.70
2018-08-09T08:57:12.861Z,12.30
2018-08-09T08:59:40.990Z,12.37
2018-08-09T09:02:09.098Z,11.70
2018-08-09T09:04:37.219Z,10.47
2018-08-09T09:07:05.322Z,11.90
2018-08-09T09:09:33.430Z,13.70
2018-08-09T09:12:01.566Z,11.43
2018-08-09T09:14:29.688Z,11.90
2018-08-09T09:16:57.785Z,12.70
2018-08-09T09:19:25.942Z,10.60
2018-08-09T09:21:54.049Z,10.00
2018-08-09T09:24:22.189Z,10.30
2018-08-09T09:26:50.305Z,10.93
2018-08-09T09:29:18.436Z,11.70
2018-08-09T09:31:46.568Z,11.43
2018-08-09T09:34:14.674Z,10.90
2018-08-09T09:36:42.830Z,11.53
2018-08-09T09:39:11.337Z,12.20
2018-08-09T09:41:40.013Z,11.33
2018-08-09T09:44:08.213Z,11.73
2018-08-09T09:46:36.318Z,10.73
2018-08-09T09:49:04.589Z,12.73
2018-08-09T09:51:32.713Z,11.60
2018-08-09T09:54:00.960Z,11.17
2018-08-09T09:56:29.098Z,11.03
2018-08-09T09:58:57.237Z,10.43
2018-08-09T10:01:30.853Z,12.27
2018-08-09T10:03:58.961Z,9.63
2018-08-09T10:06:27.081Z,9.17
2018-08-09T10:08:55.197Z,9.40
2018-08-09T10:14:02.361Z,9.57
2018-08-09T10:16:30.640Z,8.43
2018-08-09T10:18:58.789Z,10.30
2018-08-09T10:21:26.891Z,8.30
2018-08-09T10:23:54.990Z,8.00
2018-08-09T10:26:23.101Z,8.53
2018-08-09T10:28:51.242Z,6.93
2018-08-09T10:31:19.473Z,8.97
2018-08-09T10:33:47.575Z,8.27
2018-08-09T10:36:15.666Z,8.40
2018-08-09T10:38:43.776Z,8.57
2018-08-09T10:43:46.381Z,7.80
2018-08-09T10:46:14.607Z,8.63
2018-08-09T10:48:42.895Z,8.50
2018-08-09T10:51:10.998Z,9.87
2018-08-09T10:53:39.142Z,8.03
2018-08-09T10:56:07.229Z,7.63
2018-08-09T10:58:35.354Z,9.00
2018-08-09T11:01:03.444Z,8.73
2018-08-09T11:03:31.558Z,7.70
2018-08-09T11:05:59.685Z,8.50
2018-08-09T11:08:28.041Z,8.23
2018-08-09T11:10:56.144Z,8.20
2018-08-09T11:13:24.252Z,8.33
2018-08-09T11:15:52.597Z,8.60
2018-08-09T11:18:20.790Z,8.60
2018-08-09T11:20:48.942Z,9.13
2018-08-09T11:23:17.126Z,8.00
2018-08-09T11:25:45.289Z,7.83
2018-08-09T11:28:13.419Z,9.30
2018-08-09T11:30:43.849Z,8.37
2018-08-09T11:33:11.925Z,7.93
2018-08-09T11:35:40.014Z,8.40
2018-08-09T11:38:08.183Z,8.40
2018-08-09T11:40:36.270Z,7.87
2018-08-09T11:43:04.434Z,7.97
2018-08-09T11:45:32.567Z,8.50
2018-08-09T11:48:00.790Z,8.27
2018-08-09T11:50:28.966Z,8.77
2018-08-09T11:52:57.088Z,7.80
2018-08-09T11:55:25.227Z,7.80
2018-08-09T11:57:53.378Z,7.93
2018-08-09T12:00:21.499Z,7.27
2018-08-09T12:02:49.697Z,8.83
2018-08-09T12:05:17.794Z,8.30
2018-08-09T12:07:45.870Z,7.37
2018-08-09T12:10:14.020Z,7.93
2018-08-09T12:12:42.537Z,8.57
2018-08-09T12:15:10.675Z,7.30
2018-08-09T12:17:38.729Z,8.10
2018-08-09T12:20:07.330Z,7.67
2018-08-09T12:22:35.422Z,8.50
2018-08-09T12:25:03.685Z,7.83
2018-08-09T12:27:31.798Z,7.67
2018-08-09T12:30:01.635Z,8.20
2018-08-09T12:32:29.740Z,8.70
2018-08-09T12:34:57.835Z,8.20
2018-08-09T12:37:25.914Z,8.03
2018-08-09T12:39:54.019Z,7.17
2018-08-09T12:42:22.148Z,14.20
2018-08-09T12:44:50.238Z,14.87
2018-08-09T12:47:18.477Z,18.50
2018-08-09T12:49:46.716Z,6.80
2018-08-09T12:52:14.834Z,6.63
2018-08-09T12:54:42.925Z,3.50
2018-08-09T12:57:11.019Z,2.60
2018-08-09T12:59:39.132Z,3.13
2018-08-09T13:02:07.220Z,3.00
2018-08-09T13:04:35.928Z,3.40
2018-08-09T13:07:04.032Z,3.40
2018-08-09T13:09:32.131Z,2.70
2018-08-09T13:12:00.256Z,3.20
2018-08-09T13:14:28.531Z,4.10
2018-08-09T13:16:56.683Z,3.33
2018-08-09T13:19:24.731Z,2.97
2018-08-09T13:21:52.838Z,2.60
2018-08-09T13:24:21.168Z,2.67
2018-08-09T13:26:49.262Z,2.30
2018-08-09T13:29:17.389Z,2.63
2018-08-09T13:31:45.531Z,2.50
2018-08-09T13:34:13.651Z,2.27
2018-08-09T13:36:41.736Z,2.43
2018-08-09T13:39:12.273Z,2.63
2018-08-09T13:41:40.363Z,2.60
2018-08-09T13:44:08.600Z,2.60
2018-08-09T13:46:36.720Z,2.23
2018-08-09T13:49:04.955Z,2.70
2018-08-09T13:51:33.044Z,2.43
2018-08-09T13:54:01.237Z,2.90
2018-08-09T13:56:29.342Z,2.20
2018-08-09T13:58:57.433Z,2.70
2018-08-09T14:01:25.510Z,2.80
2018-08-09T14:03:53.631Z,2.27
2018-08-09T14:06:21.713Z,2.33
2018-08-09T14:08:49.842Z,2.20
2018-08-09T14:11:17.926Z,2.57
2018-08-09T14:13:46.034Z,2.60
2018-08-09T14:16:14.145Z,2.20
2018-08-09T14:18:42.250Z,3.37
2018-08-09T14:21:10.428Z,3.67
2018-08-09T14:23:38.530Z,2.53
2018-08-09T14:26:06.702Z,3.07
2018-08-09T14:28:34.897Z,2.17
2018-08-09T14:31:03.004Z,2.83
2018-08-09T14:33:31.154Z,2.83
2018-08-09T14:35:59.282Z,2.47
2018-08-09T14:38:27.478Z,2.40
2018-08-09T14:40:55.574Z,2.37
2018-08-09T14:43:23.662Z,2.20
2018-08-09T14:45:51.778Z,2.47
2018-08-09T14:48:20.275Z,2.70
2018-08-09T14:50:48.428Z,2.37
2018-08-09T14:53:16.566Z,2.13
2018-08-09T14:55:46.077Z,2.37
2018-08-09T14:58:14.178Z,2.57
2018-08-09T15:00:42.315Z,2.70
2018-08-09T15:03:10.655Z,2.60
2018-08-09T15:05:38.797Z,2.47
2018-08-09T15:08:06.864Z,2.60
2018-08-09T15:10:35.042Z,2.40
2018-08-09T15:13:03.142Z,2.40
2018-08-09T15:15:31.427Z,2.80
2018-08-09T15:17:59.478Z,2.37
2018-08-09T15:20:27.599Z,2.07
2018-08-09T15:22:55.783Z,2.20
2018-08-09T15:25:23.963Z,3.40
2018-08-09T15:27:52.127Z,3.03
2018-08-09T15:30:20.795Z,2.80
2018-08-09T15:32:49.049Z,2.77
2018-08-09T15:35:17.171Z,2.97
2018-08-09T15:37:45.590Z,2.70
2018-08-09T15:40:14.370Z,2.60
2018-08-09T15:42:46.552Z,3.10
2018-08-09T15:45:16.090Z,2.67
2018-08-09T15:47:44.407Z,2.67
2018-08-09T15:50:14.654Z,3.30
2018-08-09T15:52:43.008Z,2.53
2018-08-09T15:55:11.269Z,2.50
2018-08-09T15:57:39.730Z,3.90
2018-08-09T16:00:13.121Z,3.13
2018-08-09T16:02:41.297Z,3.20
2018-08-09T16:05:09.850Z,3.20
2018-08-09T16:07:37.992Z,2.90
2018-08-09T16:10:10.629Z,3.50
2018-08-09T16:12:39.253Z,3.23
2018-08-09T16:15:08.750Z,3.93
2018-08-09T16:17:37.162Z,3.30
2018-08-09T16:20:06.736Z,3.93
2018-08-09T16:22:35.297Z,4.13
2018-08-09T16:25:04.842Z,3.43
2018-08-09T16:27:33.101Z,3.57
2018-08-09T16:30:01.268Z,3.50
2018-08-09T16:32:29.773Z,3.37
2018-08-09T16:34:57.866Z,3.30
2018-08-09T16:37:25.979Z,3.83
2018-08-09T16:39:54.152Z,3.90
2018-08-09T16:42:22.268Z,3.90
2018-08-09T16:44:50.384Z,3.30
2018-08-09T16:47:18.479Z,3.60
2018-08-09T16:49:46.578Z,3.40
2018-08-09T16:52:14.767Z,3.30
2018-08-09T16:54:43.258Z,3.50
2018-08-09T16:57:11.403Z,3.00
2018-08-09T16:59:39.530Z,3.07
2018-08-09T17:02:07.662Z,2.90
2018-08-09T17:04:35.771Z,3.47
2018-08-09T17:07:03.890Z,2.73
2018-08-09T17:09:31.990Z,3.77
2018-08-09T17:12:00.106Z,2.90
2018-08-09T17:14:28.225Z,2.80
2018-08-09T17:16:56.324Z,3.30
2018-08-09T17:19:24.416Z,2.83
2018-08-09T17:21:52.583Z,2.93
2018-08-09T17:24:20.688Z,3.37
2018-08-09T17:26:48.876Z,2.40
2018-08-09T17:29:16.938Z,3.10
2018-08-09T17:31:45.023Z,2.97
2018-08-09T17:34:13.129Z,3.10
2018-08-09T17:36:41.224Z,3.23
2018-08-09T17:39:10.516Z,2.90
2018-08-09T17:41:38.701Z,2.60
2018-08-09T17:44:08.164Z,2.73
2018-08-09T17:46:36.282Z,2.27
2018-08-09T17:49:04.401Z,2.70
2018-08-09T17:51:32.543Z,2.45
2018-08-09T17:54:00.665Z,2.23
2018-08-09T17:56:28.801Z,2.00
2018-08-09T17:58:56.958Z,2.10
2018-08-09T18:01:25.057Z,2.17
2018-08-09T18:03:53.157Z,2.53
2018-08-09T18:06:21.345Z,2.57
2018-08-09T18:08:49.436Z,2.03
2018-08-09T18:11:17.585Z,2.97
2018-08-09T18:13:45.704Z,2.40
2018-08-09T18:16:13.836Z,2.53
2018-08-09T18:18:41.924Z,2.80
2018-08-09T18:21:10.074Z,2.40
2018-08-09T18:23:38.172Z,2.73
2018-08-09T18:26:06.330Z,2.13
2018-08-09T18:28:34.442Z,2.63
2018-08-09T18:31:09.366Z,2.13
2018-08-09T18:33:37.489Z,2.93
2018-08-09T18:36:05.568Z,2.87
2018-08-09T18:38:33.710Z,2.40
2018-08-09T18:41:01.839Z,2.77
2018-08-09T18:43:29.943Z,2.57
2018-08-09T18:45:58.048Z,2.50
2018-08-09T18:48:26.241Z,2.67
2018-08-09T18:50:54.345Z,2.80
2018-08-09T18:53:22.505Z,2.27
2018-08-09T18:55:50.620Z,2.33
2018-08-09T18:58:18.724Z,3.40
2018-08-09T19:00:46.836Z,2.17
2018-08-09T19:03:14.987Z,2.63
2018-08-09T19:05:43.098Z,2.00
2018-08-09T19:08:11.219Z,2.37
2018-08-09T19:10:39.307Z,2.50
2018-08-09T19:13:07.421Z,2.17
2018-08-09T19:15:35.787Z,2.30
2018-08-09T19:18:04.176Z,2.27
2018-08-09T19:20:33.806Z,2.33
2018-08-09T19:23:06.504Z,2.77
2018-08-09T19:25:35.293Z,2.37
2018-08-09T19:28:03.465Z,2.80
2018-08-09T19:30:31.581Z,2.60
2018-08-09T19:32:59.693Z,2.93
2018-08-09T19:35:27.977Z,2.67
2018-08-09T19:37:56.114Z,2.87
2018-08-09T19:40:26.713Z,2.30
2018-08-09T19:42:55.093Z,2.60
2018-08-09T19:45:23.204Z,2.40
2018-08-09T19:47:51.326Z,2.47
2018-08-09T19:50:20.792Z,2.90
2018-08-09T19:52:48.960Z,2.27
2018-08-09T19:55:21.687Z,2.53
2018-08-09T19:57:50.217Z,2.07
2018-08-09T20:00:21.309Z,2.50
2018-08-09T20:02:49.640Z,2.43
2018-08-09T20:05:17.793Z,2.57
2018-08-09T20:07:45.929Z,2.50
2018-08-09T20:10:14.481Z,2.27
2018-08-09T20:12:43.250Z,3.00
2018-08-09T20:15:15.221Z,2.63
2018-08-09T20:17:43.317Z,2.30
2018-08-09T20:20:12.873Z,2.40
2018-08-09T20:22:40.970Z,1.83
2018-08-09T20:25:10.169Z,2.23
2018-08-09T20:27:38.457Z,2.10
2018-08-09T20:30:08.500Z,2.13
2018-08-09T20:32:36.614Z,2.23
2018-08-09T20:35:08.110Z,2.00
2018-08-09T20:37:36.546Z,1.77
2018-08-09T20:40:05.749Z,1.57
2018-08-09T20:42:33.833Z,1.73
2018-08-09T20:45:03.277Z,1.80
2018-08-09T20:47:31.949Z,2.17
2018-08-09T20:50:00.077Z,2.10
2018-08-09T20:52:28.253Z,1.80
2018-08-09T20:54:56.389Z,2.43
2018-08-09T20:57:24.510Z,1.80
2018-08-09T20:59:52.663Z,2.10
2018-08-09T21:02:20.769Z,2.00
2018-08-09T21:04:48.905Z,2.07
2018-08-09T21:07:17.044Z,2.10
2018-08-09T21:09:45.118Z,2.20
2018-08-09T21:12:13.232Z,3.10
2018-08-09T21:14:41.366Z,2.27
2018-08-09T21:17:09.459Z,1.87
2018-08-09T21:19:37.565Z,1.80
2018-08-09T21:22:05.710Z,2.00
2018-08-09T21:24:33.851Z,2.03
2018-08-09T21:27:02.006Z,2.30
2018-08-09T21:29:30.102Z,2.50
2018-08-09T21:31:58.344Z,2.00
2018-08-09T21:34:26.426Z,2.07
2018-08-09T21:36:54.547Z,1.90
2018-08-09T21:39:22.691Z,2.07
2018-08-09T21:41:50.793Z,1.97
2018-08-09T21:44:19.036Z,2.30
2018-08-09T21:46:47.385Z,2.10
2018-08-09T21:49:15.616Z,1.90
2018-08-09T21:51:43.771Z,1.90
2018-08-09T21:54:11.931Z,1.83
2018-08-09T21:56:40.038Z,1.93
2018-08-09T21:59:08.153Z,1.87
2018-08-09T22:01:36.305Z,1.73
2018-08-09T22:04:04.415Z,1.87
2018-08-09T22:06:38.117Z,1.70
2018-08-09T22:09:14.181Z,1.83
2018-08-09T22:11:47.881Z,1.70
2018-08-09T22:14:21.433Z,2.00
2018-08-09T22:16:54.982Z,1.90
2018-08-09T22:19:28.418Z,1.70
2018-08-09T22:22:01.736Z,1.90
2018-08-09T22:24:29.850Z,2.13
2018-08-09T22:26:58.013Z,2.00
2018-08-09T22:29:26.365Z,1.80
2018-08-09T22:31:54.504Z,2.07
2018-08-09T22:34:22.612Z,1.90
2018-08-09T22:36:50.790Z,2.00
2018-08-09T22:39:18.880Z,1.80
2018-08-09T22:41:47.018Z,1.80
2018-08-09T22:44:15.155Z,2.10
2018-08-09T22:46:43.241Z,2.10
2018-08-09T22:49:11.494Z,1.97
2018-08-09T22:51:39.588Z,2.90
2018-08-09T22:54:07.769Z,1.77
2018-08-09T22:56:35.902Z,2.50
2018-08-09T22:59:04.334Z,2.40
2018-08-09T23:01:32.469Z,3.03
2018-08-09T23:04:00.560Z,2.03
2018-08-09T23:06:29.194Z,1.97
2018-08-09T23:08:57.280Z,2.13
2018-08-09T23:11:25.437Z,1.60
2018-08-09T23:13:53.536Z,1.70
2018-08-09T23:16:21.630Z,1.77
2018-08-09T23:18:49.732Z,1.53
2018-08-09T23:21:17.844Z,1.60
2018-08-09T23:23:46.019Z,1.80
2018-08-09T23:26:14.137Z,1.80
2018-08-09T23:28:42.229Z,2.10
2018-08-09T23:31:10.308Z,1.90
2018-08-09T23:33:38.425Z,1.93
2018-08-09T23:36:06.570Z,2.13
2018-08-09T23:38:34.765Z,2.00
2018-08-09T23:41:02.848Z,1.80
2018-08-09T23:43:30.988Z,1.73
2018-08-09T23:45:59.076Z,2.10
2018-08-09T23:48:27.237Z,1.90
2018-08-09T23:50:55.492Z,1.80
2018-08-09T23:53:23.648Z,1.63
2018-08-09T23:55:51.806Z,1.90
2018-08-09T23:58:19.944Z,1.57
